La Platte, Nebraska
Current Conditions -  °F | °C
As of 4:58 AM on Sunday 23 Nov 2014 (Local Time) from KOFF Reporting Station
Overcast Overcast  
Wind Chill: 52°   Ceiling: 3400
Heat Index: 52°   Visibility: 10mi
Dew Point: 50°   Wind: 6mph
Humidity: 93%   Direction: 140°SE
Pressure: 29.48"   Gusts: NA
Location:  41.1019°N, 95.9545°W
Report Text: KOFF 231058Z 14005KT 10SM SCT022 OVC034 11/10 A2948 RMK AO2A SLP980 T01120101
Loading
Personal Weather Stations






























Interactive Weather Map New forecast layout! Learn more

10-Day Weather Forecast

Advertisements
Track Severe Weather on mobile